Time;durP1;ratioP1;P1;durP2;ratioP2;P2;SDS_P1;SDS_P2;PMS_P1;PMS_P2;Temp;Humidity;BMP_temperature;BMP_pressure;BME280_temperature;BME280_humidity;BME280_pressure;Samples;Min_cycle;Max_cycle;Signal;HPM_P1;HPM_P2
2023/07/19 00:00:18;;;;;;;5.50;3.35;;;;;;;;;;5147546;27;20473;-64
2023/07/19 00:02:47;;;;;;;6.75;4.28;;;;;;;;;;5152562;27;20273;-64
2023/07/19 00:05:14;;;;;;;4.93;3.38;;;;;;;;;;5141232;27;20047;-64
2023/07/19 00:07:41;;;;;;;6.38;3.75;;;;;;;;;;5148064;27;20149;-65
2023/07/19 00:10:09;;;;;;;9.23;3.78;;;;;;;;;;5150072;27;20405;-64
2023/07/19 00:12:37;;;;;;;5.70;3.25;;;;;;;;;;5144607;27;20043;-64
2023/07/19 00:15:04;;;;;;;5.93;3.45;;;;;;;;;;5146359;27;20065;-64
2023/07/19 00:17:31;;;;;;;5.28;3.97;;;;;;;;;;5148737;27;20493;-64
2023/07/19 00:20:00;;;;;;;6.28;4.00;;;;;;;;;;5150431;27;20043;-64
2023/07/19 00:22:27;;;;;;;5.95;3.67;;;;;;;;;;5151372;27;20050;-64
2023/07/19 00:24:54;;;;;;;5.00;3.95;;;;;;;;;;5147969;27;20046;-64
2023/07/19 00:27:21;;;;;;;4.63;3.50;;;;;;;;;;5132468;27;20049;-65
2023/07/19 00:29:49;;;;;;;6.72;4.07;;;;;;;;;;5148846;27;20092;-64
2023/07/19 00:32:16;;;;;;;7.07;4.15;;;;;;;;;;5127507;27;20375;-64
2023/07/19 00:34:43;;;;;;;7.15;4.30;;;;;;;;;;5145991;27;20061;-64
2023/07/19 00:37:12;;;;;;;5.75;4.00;;;;;;;;;;5142763;27;20050;-64
2023/07/19 00:39:39;;;;;;;6.65;3.88;;;;;;;;;;5138714;27;20047;-64
2023/07/19 00:42:07;;;;;;;8.77;4.85;;;;;;;;;;5150482;27;20062;-64
2023/07/19 00:44:34;;;;;;;5.90;4.18;;;;;;;;;;5145113;27;20054;-64
2023/07/19 00:47:02;;;;;;;6.35;3.88;;;;;;;;;;5147532;27;20054;-64
2023/07/19 00:49:30;;;;;;;5.75;4.25;;;;;;;;;;5145640;27;20055;-64
2023/07/19 00:51:58;;;;;;;6.93;4.50;;;;;;;;;;5145256;27;20051;-64
2023/07/19 00:54:26;;;;;;;7.32;4.75;;;;;;;;;;5148410;27;20089;-64
2023/07/19 00:56:54;;;;;;;7.32;4.10;;;;;;;;;;5146502;27;20509;-64
2023/07/19 00:59:23;;;;;;;7.45;4.60;;;;;;;;;;5145948;27;20047;-64
2023/07/19 01:01:51;;;;;;;8.15;4.60;;;;;;;;;;5145177;27;20130;-64
2023/07/19 01:04:18;;;;;;;7.90;4.68;;;;;;;;;;5144673;27;20405;-64
2023/07/19 01:06:45;;;;;;;6.05;4.32;;;;;;;;;;5147431;27;20534;-65
2023/07/19 01:09:13;;;;;;;5.35;3.85;;;;;;;;;;5148869;27;20053;-66
2023/07/19 01:11:42;;;;;;;6.97;4.05;;;;;;;;;;5147069;27;20047;-66
2023/07/19 01:14:09;;;;;;;7.13;4.40;;;;;;;;;;5128644;27;20058;-66
2023/07/19 01:16:37;;;;;;;10.20;4.57;;;;;;;;;;5141559;27;20896;-66
2023/07/19 01:19:04;;;;;;;9.18;4.78;;;;;;;;;;5145570;27;20046;-66
2023/07/19 01:21:31;;;;;;;6.13;4.25;;;;;;;;;;5140095;27;20070;-65
2023/07/19 01:24:00;;;;;;;11.82;3.90;;;;;;;;;;5128725;27;20058;-66
2023/07/19 01:26:27;;;;;;;5.50;4.30;;;;;;;;;;5150036;27;20501;-65
2023/07/19 01:28:57;;;;;;;6.38;4.60;;;;;;;;;;5142637;27;20047;-66
2023/07/19 01:31:24;;;;;;;8.18;4.68;;;;;;;;;;5145763;27;20146;-66
2023/07/19 01:33:51;;;;;;;7.88;4.50;;;;;;;;;;5137458;27;20058;-66
2023/07/19 01:36:19;;;;;;;9.00;4.40;;;;;;;;;;5141299;27;20075;-66
2023/07/19 01:38:46;;;;;;;5.50;3.83;;;;;;;;;;5146037;27;20047;-66
2023/07/19 01:41:14;;;;;;;7.15;4.90;;;;;;;;;;5142388;27;20059;-66
2023/07/19 01:43:42;;;;;;;6.88;4.82;;;;;;;;;;5146697;27;20062;-66
2023/07/19 01:46:09;;;;;;;6.93;4.80;;;;;;;;;;5146113;27;20043;-66
2023/07/19 01:48:37;;;;;;;10.07;4.60;;;;;;;;;;5145938;27;20387;-65
2023/07/19 01:51:05;;;;;;;9.05;4.78;;;;;;;;;;5145590;27;20058;-66
2023/07/19 01:53:32;;;;;;;6.93;5.00;;;;;;;;;;5146393;27;20059;-66
2023/07/19 01:55:59;;;;;;;7.15;4.95;;;;;;;;;;5148921;27;20046;-66
2023/07/19 01:58:28;;;;;;;7.05;4.47;;;;;;;;;;5138766;27;20055;-66
2023/07/19 02:00:56;;;;;;;6.13;3.92;;;;;;;;;;5129786;27;20070;-66
2023/07/19 02:03:23;;;;;;;4.55;3.85;;;;;;;;;;5140892;27;20050;-65
2023/07/19 02:05:57;;;;;;;5.60;4.18;;;;;;;;;;5148628;27;20043;-65
2023/07/19 02:08:24;;;;;;;5.88;4.00;;;;;;;;;;5148251;27;20458;-65
2023/07/19 02:10:51;;;;;;;9.43;4.13;;;;;;;;;;5147880;27;20042;-66
2023/07/19 02:13:18;;;;;;;5.90;4.30;;;;;;;;;;5142788;27;20051;-66
2023/07/19 02:15:47;;;;;;;6.13;4.28;;;;;;;;;;5119458;27;20509;-66
2023/07/19 02:18:15;;;;;;;6.72;4.03;;;;;;;;;;5149367;27;20046;-66
2023/07/19 02:20:46;;;;;;;7.43;5.00;;;;;;;;;;5147794;27;20087;-66
2023/07/19 02:23:13;;;;;;;6.00;4.55;;;;;;;;;;5138221;27;20499;-66
2023/07/19 02:25:41;;;;;;;7.47;5.35;;;;;;;;;;5138667;27;20046;-66
2023/07/19 02:28:09;;;;;;;8.10;4.65;;;;;;;;;;5145168;27;20169;-65
2023/07/19 02:30:36;;;;;;;7.97;4.65;;;;;;;;;;5139359;27;20164;-65
2023/07/19 02:33:04;;;;;;;6.57;4.68;;;;;;;;;;5141907;27;20042;-66
2023/07/19 02:35:32;;;;;;;6.18;4.18;;;;;;;;;;5136429;27;20039;-65
2023/07/19 02:37:59;;;;;;;6.22;4.00;;;;;;;;;;5139445;27;20125;-66
2023/07/19 02:40:26;;;;;;;5.82;4.07;;;;;;;;;;5147182;27;20050;-66
2023/07/19 02:42:53;;;;;;;5.88;4.15;;;;;;;;;;5124774;27;20469;-65
2023/07/19 02:45:21;;;;;;;7.45;4.22;;;;;;;;;;5142256;27;20079;-65
2023/07/19 02:47:48;;;;;;;8.73;4.57;;;;;;;;;;5146197;27;20477;-66
2023/07/19 02:50:17;;;;;;;6.68;3.83;;;;;;;;;;5142207;27;20054;-66
2023/07/19 02:52:44;;;;;;;7.43;4.22;;;;;;;;;;5147340;27;20477;-66
2023/07/19 02:55:11;;;;;;;6.07;3.92;;;;;;;;;;5145447;27;20045;-65
2023/07/19 02:57:39;;;;;;;5.70;3.85;;;;;;;;;;5142704;27;20049;-66
2023/07/19 03:00:07;;;;;;;6.80;4.13;;;;;;;;;;5147350;27;20050;-66
2023/07/19 03:02:35;;;;;;;5.05;3.78;;;;;;;;;;5137799;27;20132;-66
2023/07/19 03:05:03;;;;;;;6.03;4.05;;;;;;;;;;5147829;27;20042;-66
2023/07/19 03:07:32;;;;;;;6.13;3.83;;;;;;;;;;5147948;27;20134;-65
2023/07/19 03:10:00;;;;;;;6.63;3.97;;;;;;;;;;5142966;27;20051;-65
2023/07/19 03:12:27;;;;;;;5.53;3.75;;;;;;;;;;5127640;27;20062;-66
2023/07/19 03:14:54;;;;;;;7.55;4.18;;;;;;;;;;5125438;27;20050;-66
2023/07/19 03:17:22;;;;;;;6.63;3.67;;;;;;;;;;5140525;27;20047;-66
2023/07/19 03:19:49;;;;;;;6.15;3.95;;;;;;;;;;5141002;27;20699;-66
2023/07/19 03:22:16;;;;;;;6.68;3.95;;;;;;;;;;5137054;27;20405;-66
2023/07/19 03:24:45;;;;;;;4.95;3.70;;;;;;;;;;5146453;27;20043;-66
2023/07/19 03:27:12;;;;;;;5.80;3.70;;;;;;;;;;5144135;27;20513;-66
2023/07/19 03:29:39;;;;;;;5.80;3.72;;;;;;;;;;5126848;27;20043;-66
2023/07/19 03:32:07;;;;;;;7.70;3.65;;;;;;;;;;5143038;27;20588;-66
2023/07/19 03:34:35;;;;;;;6.90;3.50;;;;;;;;;;5144997;27;20160;-66
2023/07/19 03:37:02;;;;;;;6.78;3.53;;;;;;;;;;5143191;27;20082;-65
2023/07/19 03:39:29;;;;;;;5.55;3.25;;;;;;;;;;5138918;27;20039;-66
2023/07/19 03:41:58;;;;;;;6.65;3.47;;;;;;;;;;5139894;27;20058;-66
2023/07/19 03:44:25;;;;;;;4.50;3.22;;;;;;;;;;5141572;27;20084;-66
2023/07/19 03:46:52;;;;;;;6.78;3.40;;;;;;;;;;5143470;27;20042;-65
2023/07/19 03:49:19;;;;;;;5.47;3.15;;;;;;;;;;5140826;27;20050;-66
2023/07/19 03:51:47;;;;;;;6.75;3.75;;;;;;;;;;5144863;27;20053;-66
2023/07/19 03:54:14;;;;;;;4.75;3.38;;;;;;;;;;5143418;27;20500;-66
2023/07/19 03:56:41;;;;;;;5.30;3.45;;;;;;;;;;5144433;27;20051;-66
2023/07/19 03:59:10;;;;;;;6.90;3.65;;;;;;;;;;5146647;27;20050;-66
2023/07/19 04:01:37;;;;;;;5.60;3.80;;;;;;;;;;5141639;27;20050;-66
2023/07/19 04:04:05;;;;;;;5.40;4.10;;;;;;;;;;5143012;27;20047;-65
2023/07/19 04:06:32;;;;;;;6.05;3.72;;;;;;;;;;5142633;27;20051;-66
2023/07/19 04:08:59;;;;;;;7.75;4.20;;;;;;;;;;5139781;27;20066;-66
2023/07/19 04:11:27;;;;;;;8.82;4.57;;;;;;;;;;5140946;27;20089;-66
2023/07/19 04:13:54;;;;;;;5.57;4.15;;;;;;;;;;5142407;27;20409;-66
2023/07/19 04:16:22;;;;;;;7.60;4.07;;;;;;;;;;5150911;27;20046;-66
2023/07/19 04:18:50;;;;;;;5.40;3.55;;;;;;;;;;5138972;27;20156;-66
2023/07/19 04:21:17;;;;;;;7.03;3.92;;;;;;;;;;5146295;27;20047;-66
2023/07/19 04:23:44;;;;;;;7.53;3.75;;;;;;;;;;5151096;27;20087;-66
2023/07/19 04:26:12;;;;;;;6.85;4.10;;;;;;;;;;5148083;27;20066;-66
2023/07/19 04:28:39;;;;;;;5.15;3.88;;;;;;;;;;5150204;27;20054;-66
2023/07/19 04:31:06;;;;;;;6.55;3.70;;;;;;;;;;5148202;27;20054;-66
2023/07/19 04:33:35;;;;;;;8.98;3.60;;;;;;;;;;5145336;27;20054;-66
2023/07/19 04:36:11;;;;;;;6.18;3.53;;;;;;;;;;5146884;27;20500;-65
2023/07/19 04:38:38;;;;;;;8.65;3.55;;;;;;;;;;5149537;27;20806;-66
2023/07/19 04:41:06;;;;;;;6.55;3.00;;;;;;;;;;5115282;27;20047;-66
2023/07/19 04:43:33;;;;;;;5.57;2.30;;;;;;;;;;5145728;27;20051;-66
2023/07/19 04:46:00;;;;;;;4.82;2.20;;;;;;;;;;5146830;27;20087;-66
2023/07/19 04:48:27;;;;;;;4.75;2.20;;;;;;;;;;5149467;27;20316;-66
2023/07/19 04:50:56;;;;;;;4.05;2.10;;;;;;;;;;5140118;27;20055;-66
2023/07/19 04:53:25;;;;;;;4.80;1.90;;;;;;;;;;5148470;27;20039;-66
2023/07/19 04:55:52;;;;;;;2.35;1.33;;;;;;;;;;5145919;27;20050;-66
2023/07/19 04:58:20;;;;;;;2.17;1.00;;;;;;;;;;5143194;27;20051;-65
2023/07/19 05:00:47;;;;;;;2.65;0.90;;;;;;;;;;5143733;27;20493;-67
2023/07/19 05:03:15;;;;;;;3.85;0.93;;;;;;;;;;5144622;27;20054;-66
2023/07/19 05:05:42;;;;;;;1.90;1.10;;;;;;;;;;5142810;27;20050;-66
2023/07/19 05:08:11;;;;;;;2.55;0.80;;;;;;;;;;5149343;27;20050;-66
2023/07/19 05:10:38;;;;;;;2.45;1.00;;;;;;;;;;5149997;27;20469;-67
2023/07/19 05:13:05;;;;;;;6.90;1.23;;;;;;;;;;5143337;27;20047;-66
2023/07/19 05:15:34;;;;;;;5.20;1.15;;;;;;;;;;5143895;27;20062;-65
2023/07/19 05:18:03;;;;;;;3.33;1.00;;;;;;;;;;5144903;27;20054;-66
2023/07/19 05:20:30;;;;;;;2.90;1.00;;;;;;;;;;5128851;27;20047;-67
2023/07/19 05:22:57;;;;;;;4.43;1.08;;;;;;;;;;5121077;27;20050;-69
2023/07/19 05:25:26;;;;;;;4.05;1.00;;;;;;;;;;5143648;27;20105;-66
2023/07/19 05:27:54;;;;;;;1.98;0.80;;;;;;;;;;5141800;27;20055;-66
2023/07/19 05:30:21;;;;;;;8.60;1.20;;;;;;;;;;5145917;27;20394;-66
2023/07/19 05:32:48;;;;;;;3.70;1.00;;;;;;;;;;5119091;27;20050;-66
2023/07/19 05:35:16;;;;;;;6.25;0.93;;;;;;;;;;5138841;27;20046;-66
2023/07/19 05:37:43;;;;;;;2.50;1.05;;;;;;;;;;5121984;27;20149;-66
2023/07/19 05:40:10;;;;;;;3.70;1.52;;;;;;;;;;5143155;27;20394;-66
2023/07/19 05:42:39;;;;;;;2.60;1.23;;;;;;;;;;5143562;27;20050;-66
2023/07/19 05:45:08;;;;;;;4.63;1.58;;;;;;;;;;5140839;27;20043;-66
2023/07/19 05:47:35;;;;;;;4.07;1.40;;;;;;;;;;5140967;27;20445;-66
2023/07/19 05:50:03;;;;;;;6.13;1.92;;;;;;;;;;5117526;27;20065;-66
2023/07/19 05:52:30;;;;;;;2.90;1.70;;;;;;;;;;5136757;27;20072;-67
2023/07/19 05:54:57;;;;;;;4.10;1.45;;;;;;;;;;5123627;27;20059;-66
2023/07/19 05:57:24;;;;;;;4.72;1.60;;;;;;;;;;5141934;27;20046;-66
2023/07/19 05:59:53;;;;;;;3.47;1.40;;;;;;;;;;5143207;27;20389;-66
2023/07/19 06:02:20;;;;;;;2.42;1.45;;;;;;;;;;5121545;27;20043;-67
2023/07/19 06:04:48;;;;;;;4.30;1.40;;;;;;;;;;5144478;27;20478;-66
2023/07/19 06:07:16;;;;;;;2.05;1.15;;;;;;;;;;5143717;27;20415;-66
2023/07/19 06:09:43;;;;;;;2.80;1.38;;;;;;;;;;5145178;27;20518;-66
2023/07/19 06:12:10;;;;;;;2.17;1.10;;;;;;;;;;5147516;27;20471;-66
2023/07/19 06:14:38;;;;;;;6.85;1.20;;;;;;;;;;5144936;27;20661;-66
2023/07/19 06:17:06;;;;;;;2.83;1.10;;;;;;;;;;5141358;27;20135;-66
2023/07/19 06:19:34;;;;;;;1.85;1.20;;;;;;;;;;5135326;27;20054;-66
2023/07/19 06:22:01;;;;;;;2.63;0.98;;;;;;;;;;5143765;27;20050;-66
2023/07/19 06:24:28;;;;;;;2.83;1.20;;;;;;;;;;5149042;27;20043;-66
2023/07/19 06:26:56;;;;;;;2.40;1.02;;;;;;;;;;5123905;27;20054;-66
2023/07/19 06:29:23;;;;;;;2.50;1.00;;;;;;;;;;5138055;27;20039;-66
2023/07/19 06:31:51;;;;;;;2.83;1.70;;;;;;;;;;5143460;27;20054;-66
2023/07/19 06:34:19;;;;;;;3.65;1.15;;;;;;;;;;5137448;27;20050;-66
2023/07/19 06:36:46;;;;;;;2.58;0.75;;;;;;;;;;5141619;27;20485;-66
2023/07/19 06:39:14;;;;;;;1.55;1.00;;;;;;;;;;5144319;27;20039;-66
2023/07/19 06:41:41;;;;;;;2.15;1.00;;;;;;;;;;5142970;27;20493;-66
2023/07/19 06:44:08;;;;;;;2.55;1.25;;;;;;;;;;5137985;27;20050;-66
2023/07/19 06:46:35;;;;;;;1.63;0.82;;;;;;;;;;5141962;27;20450;-66
2023/07/19 06:49:03;;;;;;;3.25;1.00;;;;;;;;;;5138561;27;20050;-66
2023/07/19 06:51:31;;;;;;;2.50;1.00;;;;;;;;;;5138506;27;20264;-67
2023/07/19 06:53:58;;;;;;;2.55;1.00;;;;;;;;;;5140673;27;20043;-66
2023/07/19 06:56:26;;;;;;;1.20;0.77;;;;;;;;;;5142694;27;20397;-66
2023/07/19 06:58:53;;;;;;;2.30;0.98;;;;;;;;;;5143814;27;20046;-66
2023/07/19 07:01:20;;;;;;;1.13;0.85;;;;;;;;;;5143750;27;20047;-66
2023/07/19 07:03:47;;;;;;;2.20;0.70;;;;;;;;;;5143921;27;20054;-67
2023/07/19 07:06:14;;;;;;;1.92;0.85;;;;;;;;;;5142727;27;20580;-66
2023/07/19 07:08:43;;;;;;;4.03;0.75;;;;;;;;;;5142943;27;20047;-67
2023/07/19 07:11:10;;;;;;;1.58;0.80;;;;;;;;;;5144888;27;20046;-66
2023/07/19 07:13:38;;;;;;;2.30;0.80;;;;;;;;;;5142241;27;20072;-67
2023/07/19 07:16:05;;;;;;;1.20;0.77;;;;;;;;;;5141153;27;20359;-67
2023/07/19 07:18:32;;;;;;;3.60;0.93;;;;;;;;;;5147123;27;20042;-67
2023/07/19 07:21:00;;;;;;;1.73;0.60;;;;;;;;;;5129560;27;20049;-67
2023/07/19 07:23:27;;;;;;;3.35;0.90;;;;;;;;;;5141995;27;20050;-66
2023/07/19 07:25:56;;;;;;;3.03;0.80;;;;;;;;;;5120075;27;20065;-66
2023/07/19 07:28:23;;;;;;;3.15;0.80;;;;;;;;;;5145381;27;20050;-66
2023/07/19 07:30:50;;;;;;;4.50;0.75;;;;;;;;;;5140062;27;20043;-66
2023/07/19 07:33:19;;;;;;;2.33;1.02;;;;;;;;;;5143885;27;20057;-66
2023/07/19 07:35:46;;;;;;;1.38;0.52;;;;;;;;;;5146375;27;20114;-65
2023/07/19 07:38:13;;;;;;;2.55;0.70;;;;;;;;;;5146478;27;20099;-66
2023/07/19 07:40:41;;;;;;;3.75;1.23;;;;;;;;;;5124242;27;20435;-66
2023/07/19 07:43:09;;;;;;;1.85;0.70;;;;;;;;;;5123136;27;20080;-65
2023/07/19 07:45:37;;;;;;;1.83;0.70;;;;;;;;;;5125352;27;20483;-65
2023/07/19 07:48:04;;;;;;;3.13;0.82;;;;;;;;;;5144709;27;20129;-66
2023/07/19 07:50:31;;;;;;;4.18;0.88;;;;;;;;;;5147190;27;20134;-66
2023/07/19 07:52:59;;;;;;;2.22;0.80;;;;;;;;;;5145595;27;20048;-66
2023/07/19 07:55:26;;;;;;;2.42;0.75;;;;;;;;;;5147326;27;20043;-66
2023/07/19 07:57:53;;;;;;;1.75;0.68;;;;;;;;;;5128414;27;20076;-66
2023/07/19 08:00:22;;;;;;;1.35;0.60;;;;;;;;;;5144790;27;20050;-66
2023/07/19 08:02:49;;;;;;;1.38;0.73;;;;;;;;;;5147599;27;20038;-66
2023/07/19 08:05:17;;;;;;;2.90;0.95;;;;;;;;;;5147871;27;20074;-67
2023/07/19 08:07:44;;;;;;;3.45;0.70;;;;;;;;;;5147769;27;20050;-66
2023/07/19 08:10:11;;;;;;;2.60;0.75;;;;;;;;;;5147705;27;20053;-66
2023/07/19 08:12:39;;;;;;;3.00;0.70;;;;;;;;;;5143683;27;20050;-66
2023/07/19 08:15:07;;;;;;;2.08;0.60;;;;;;;;;;5143991;27;20050;-66
2023/07/19 08:17:36;;;;;;;2.28;0.70;;;;;;;;;;5144275;27;20053;-66
2023/07/19 08:20:06;;;;;;;1.45;0.75;;;;;;;;;;5146223;27;20059;-66
2023/07/19 08:22:33;;;;;;;1.60;0.80;;;;;;;;;;5142678;27;20355;-66
2023/07/19 08:25:00;;;;;;;5.45;1.00;;;;;;;;;;5144738;27;20043;-67
2023/07/19 08:27:28;;;;;;;1.70;0.70;;;;;;;;;;5138196;27;20039;-66
2023/07/19 08:29:55;;;;;;;1.85;0.60;;;;;;;;;;5144054;27;20153;-66
2023/07/19 08:32:22;;;;;;;1.38;0.68;;;;;;;;;;5143309;27;20046;-66
2023/07/19 08:34:51;;;;;;;4.07;0.93;;;;;;;;;;5146971;27;20054;-66
2023/07/19 08:37:18;;;;;;;3.47;0.70;;;;;;;;;;5149236;27;20039;-66
2023/07/19 08:39:45;;;;;;;2.20;0.70;;;;;;;;;;5138765;27;20055;-66
2023/07/19 08:42:12;;;;;;;2.30;0.60;;;;;;;;;;5139989;27;20072;-66
2023/07/19 08:44:40;;;;;;;4.78;1.05;;;;;;;;;;5137032;27;20342;-66
2023/07/19 08:47:08;;;;;;;2.50;0.60;;;;;;;;;;5149230;27;20461;-66
2023/07/19 08:49:36;;;;;;;3.63;0.70;;;;;;;;;;5146648;27;20050;-67
2023/07/19 08:52:06;;;;;;;4.30;1.35;;;;;;;;;;5149639;27;20048;-66
2023/07/19 08:54:34;;;;;;;1.42;0.98;;;;;;;;;;5146563;27;20047;-67
2023/07/19 08:57:01;;;;;;;1.40;0.85;;;;;;;;;;5145348;27;20101;-66
2023/07/19 08:59:28;;;;;;;2.25;0.80;;;;;;;;;;5147207;27;20054;-66
2023/07/19 09:01:56;;;;;;;1.30;0.70;;;;;;;;;;5145423;27;20043;-66
2023/07/19 09:04:23;;;;;;;1.63;0.80;;;;;;;;;;5146259;27;20050;-67
2023/07/19 09:06:50;;;;;;;2.88;0.80;;;;;;;;;;5146510;27;20049;-66
2023/07/19 09:09:19;;;;;;;1.67;0.65;;;;;;;;;;5131167;27;20513;-66
2023/07/19 09:11:48;;;;;;;1.27;0.80;;;;;;;;;;5143992;27;20045;-67
2023/07/19 09:14:16;;;;;;;3.30;1.00;;;;;;;;;;5143270;27;20401;-66
2023/07/19 09:16:43;;;;;;;2.22;1.10;;;;;;;;;;5141555;27;20055;-66
2023/07/19 09:19:10;;;;;;;2.60;0.90;;;;;;;;;;5137360;27;20066;-66
2023/07/19 09:21:38;;;;;;;2.15;0.80;;;;;;;;;;5144923;27;20050;-66
2023/07/19 09:24:06;;;;;;;3.80;0.80;;;;;;;;;;5141024;27;20043;-66
2023/07/19 09:26:48;;;;;;;2.38;0.85;;;;;;;;;;5138018;27;20066;-66
2023/07/19 09:29:16;;;;;;;2.22;0.80;;;;;;;;;;5142516;27;20054;-66
2023/07/19 09:31:56;;;;;;;0.90;0.70;;;;;;;;;;5146850;27;20210;-66
2023/07/19 09:34:24;;;;;;;2.00;0.70;;;;;;;;;;5146204;27;20047;-66
2023/07/19 09:36:52;;;;;;;4.13;0.90;;;;;;;;;;5148513;27;20505;-67
2023/07/19 09:39:20;;;;;;;0.73;0.63;;;;;;;;;;5148657;27;20057;-66
2023/07/19 09:41:48;;;;;;;1.95;0.60;;;;;;;;;;5148579;27;20047;-66
2023/07/19 09:44:16;;;;;;;4.18;0.75;;;;;;;;;;5137885;27;20049;-66
2023/07/19 09:46:44;;;;;;;1.42;0.60;;;;;;;;;;5148409;27;20043;-66
2023/07/19 09:49:12;;;;;;;1.73;0.70;;;;;;;;;;5146805;27;20134;-67
2023/07/19 09:51:41;;;;;;;1.13;0.60;;;;;;;;;;5149401;27;20050;-66
2023/07/19 09:54:09;;;;;;;1.08;0.50;;;;;;;;;;5148721;27;20075;-67
2023/07/19 09:56:37;;;;;;;0.80;0.50;;;;;;;;;;5140210;27;20365;-66
2023/07/19 09:59:06;;;;;;;1.60;0.80;;;;;;;;;;5142772;27;20137;-67
2023/07/19 10:01:34;;;;;;;1.52;0.70;;;;;;;;;;5142759;27;20057;-66
2023/07/19 10:04:01;;;;;;;1.00;0.55;;;;;;;;;;5144991;27;20051;-66
2023/07/19 10:06:30;;;;;;;1.40;0.50;;;;;;;;;;5142449;27;20055;-66
2023/07/19 10:09:12;;;;;;;2.53;0.85;;;;;;;;;;5140601;27;20504;-66
2023/07/19 10:11:40;;;;;;;1.65;0.95;;;;;;;;;;5142165;27;20545;-67
2023/07/19 10:14:08;;;;;;;2.25;0.70;;;;;;;;;;5141082;27;20039;-66
2023/07/19 10:16:36;;;;;;;1.83;0.70;;;;;;;;;;5138280;27;20494;-66
2023/07/19 10:19:11;;;;;;;1.77;0.70;;;;;;;;;;5148216;27;20050;-66
2023/07/19 10:21:38;;;;;;;1.85;0.73;;;;;;;;;;5143685;27;20478;-66
2023/07/19 10:24:07;;;;;;;2.35;0.77;;;;;;;;;;5146974;27;20061;-66
2023/07/19 10:26:36;;;;;;;2.25;0.70;;;;;;;;;;5142744;27;20099;-66
2023/07/19 10:29:04;;;;;;;2.08;0.80;;;;;;;;;;5145483;27;20053;-66
2023/07/19 10:31:33;;;;;;;2.20;0.90;;;;;;;;;;5139777;27;20047;-66
2023/07/19 10:34:04;;;;;;;4.22;0.90;;;;;;;;;;5133440;27;20058;-64
2023/07/19 10:36:31;;;;;;;1.85;0.70;;;;;;;;;;5117789;27;20061;-65
2023/07/19 10:38:58;;;;;;;0.88;0.60;;;;;;;;;;5134089;27;20478;-64
2023/07/19 10:41:25;;;;;;;1.00;0.60;;;;;;;;;;5137888;27;20506;-64
2023/07/19 10:43:53;;;;;;;2.63;0.80;;;;;;;;;;5122125;27;20066;-64
2023/07/19 10:46:20;;;;;;;1.08;0.70;;;;;;;;;;5146806;27;20078;-64
2023/07/19 10:48:51;;;;;;;2.00;1.00;;;;;;;;;;5146709;27;20046;-64
2023/07/19 10:51:20;;;;;;;0.80;0.60;;;;;;;;;;5138324;27;20055;-64
2023/07/19 10:53:48;;;;;;;2.28;0.60;;;;;;;;;;5144534;27;20699;-64
2023/07/19 10:56:18;;;;;;;1.58;0.77;;;;;;;;;;5145035;27;20126;-65
2023/07/19 10:58:45;;;;;;;1.33;0.70;;;;;;;;;;5128736;27;20050;-65
2023/07/19 11:01:13;;;;;;;2.90;1.02;;;;;;;;;;5147451;27;20046;-64
2023/07/19 11:03:42;;;;;;;2.70;0.90;;;;;;;;;;5143736;27;20051;-64
2023/07/19 11:06:11;;;;;;;1.67;0.73;;;;;;;;;;5145856;27;20085;-64
2023/07/19 11:08:38;;;;;;;1.88;0.80;;;;;;;;;;5141661;27;20047;-64
2023/07/19 11:11:06;;;;;;;1.65;0.80;;;;;;;;;;5147923;27;20488;-64
2023/07/19 11:13:33;;;;;;;4.03;1.08;;;;;;;;;;5140015;27;20113;-64
2023/07/19 11:16:01;;;;;;;1.13;0.80;;;;;;;;;;5145432;27;20069;-65
2023/07/19 11:18:29;;;;;;;1.65;0.75;;;;;;;;;;5146712;27;20047;-65
2023/07/19 11:20:57;;;;;;;1.63;1.00;;;;;;;;;;5137505;27;20150;-65
2023/07/19 11:23:26;;;;;;;1.98;0.90;;;;;;;;;;5143819;27;20115;-65
2023/07/19 11:25:53;;;;;;;1.00;0.77;;;;;;;;;;5144206;27;20054;-65
2023/07/19 11:28:36;;;;;;;1.55;0.80;;;;;;;;;;5150571;27;20072;-65
2023/07/19 11:31:05;;;;;;;0.73;0.55;;;;;;;;;;5150317;27;20444;-64
2023/07/19 11:33:34;;;;;;;2.60;0.80;;;;;;;;;;5141025;27;20051;-64
2023/07/19 11:36:01;;;;;;;1.55;0.80;;;;;;;;;;5140548;27;20054;-66
2023/07/19 11:38:30;;;;;;;1.77;0.70;;;;;;;;;;5146310;27;20054;-66
2023/07/19 11:40:58;;;;;;;1.95;0.85;;;;;;;;;;5146623;27;20146;-65
2023/07/19 11:43:26;;;;;;;1.20;0.70;;;;;;;;;;5131643;27;20042;-65
2023/07/19 11:45:55;;;;;;;3.83;0.80;;;;;;;;;;5148954;27;20051;-65
2023/07/19 11:48:22;;;;;;;2.10;0.75;;;;;;;;;;5148645;27;20108;-65
2023/07/19 11:50:50;;;;;;;1.67;0.85;;;;;;;;;;5149690;27;20050;-65
2023/07/19 11:53:17;;;;;;;1.17;0.80;;;;;;;;;;5144769;27;20059;-65
2023/07/19 11:55:47;;;;;;;2.25;0.60;;;;;;;;;;5148709;27;20490;-65
2023/07/19 11:58:14;;;;;;;1.45;0.80;;;;;;;;;;5142141;27;20095;-65
2023/07/19 12:00:42;;;;;;;0.73;0.70;;;;;;;;;;5144090;27;20485;-65
2023/07/19 12:03:09;;;;;;;1.27;0.70;;;;;;;;;;5150859;27;20054;-66
2023/07/19 12:05:36;;;;;;;1.45;0.73;;;;;;;;;;5150228;27;20397;-65
2023/07/19 12:08:05;;;;;;;1.27;0.65;;;;;;;;;;5130013;27;20335;-66
2023/07/19 12:10:33;;;;;;;1.92;0.85;;;;;;;;;;5136541;27;20054;-66
2023/07/19 12:13:02;;;;;;;1.17;0.68;;;;;;;;;;5148458;27;20046;-65
2023/07/19 12:15:29;;;;;;;1.02;0.60;;;;;;;;;;5150321;27;20137;-66
2023/07/19 12:17:56;;;;;;;0.98;0.50;;;;;;;;;;5141694;27;20401;-66
2023/07/19 12:20:24;;;;;;;1.80;0.70;;;;;;;;;;5150165;27;20057;-66
2023/07/19 12:22:51;;;;;;;0.70;0.70;;;;;;;;;;5122934;27;20058;-66
2023/07/19 12:25:18;;;;;;;0.82;0.57;;;;;;;;;;5114417;27;20050;-66
2023/07/19 12:27:52;;;;;;;0.88;0.60;;;;;;;;;;5133697;27;20051;-65
2023/07/19 12:30:21;;;;;;;2.10;0.88;;;;;;;;;;5132951;27;20042;-65
2023/07/19 12:32:48;;;;;;;1.25;0.88;;;;;;;;;;5149023;27;20074;-66
2023/07/19 12:35:15;;;;;;;0.80;0.60;;;;;;;;;;5151728;27;20087;-66
2023/07/19 12:37:43;;;;;;;1.98;0.80;;;;;;;;;;5149907;27;20047;-66
2023/07/19 12:40:10;;;;;;;1.35;0.65;;;;;;;;;;5124914;27;20039;-65
2023/07/19 12:42:38;;;;;;;3.03;0.80;;;;;;;;;;5123342;27;20090;-66
2023/07/19 12:45:09;;;;;;;3.85;0.73;;;;;;;;;;5145210;27;20072;-67
2023/07/19 12:47:38;;;;;;;1.77;0.70;;;;;;;;;;5143360;27;20126;-65
2023/07/19 12:50:06;;;;;;;1.33;0.77;;;;;;;;;;5142103;27;20051;-64
2023/07/19 12:52:34;;;;;;;0.60;0.60;;;;;;;;;;5141690;27;20051;-66
2023/07/19 12:55:01;;;;;;;1.05;0.73;;;;;;;;;;5150146;27;20489;-65
2023/07/19 12:57:28;;;;;;;1.20;0.80;;;;;;;;;;5146451;27;20059;-64
2023/07/19 12:59:56;;;;;;;1.35;0.75;;;;;;;;;;5124683;27;20051;-65
2023/07/19 13:02:23;;;;;;;1.13;0.60;;;;;;;;;;5149496;27;20046;-65
2023/07/19 13:04:52;;;;;;;0.82;0.60;;;;;;;;;;5149630;27;20095;-64
2023/07/19 13:07:19;;;;;;;1.45;0.57;;;;;;;;;;5149455;27;20060;-65
2023/07/19 13:09:46;;;;;;;1.85;0.63;;;;;;;;;;5149449;27;20142;-65
2023/07/19 13:12:14;;;;;;;1.13;0.70;;;;;;;;;;5141853;27;20383;-66
2023/07/19 13:14:41;;;;;;;0.63;0.60;;;;;;;;;;5136782;27;20414;-65
2023/07/19 13:17:09;;;;;;;2.63;0.93;;;;;;;;;;5148235;27;20125;-65
2023/07/19 13:19:36;;;;;;;0.82;0.50;;;;;;;;;;5122936;27;20047;-65
2023/07/19 13:22:05;;;;;;;1.63;0.80;;;;;;;;;;5142377;27;20058;-65
2023/07/19 13:24:32;;;;;;;1.15;0.80;;;;;;;;;;5142947;27;20055;-65
2023/07/19 13:27:00;;;;;;;0.60;0.57;;;;;;;;;;5141492;27;20049;-65
2023/07/19 13:29:27;;;;;;;1.17;0.75;;;;;;;;;;5150138;27;20501;-66
2023/07/19 13:31:55;;;;;;;1.42;0.77;;;;;;;;;;5150297;27;20149;-66
2023/07/19 13:34:22;;;;;;;0.93;0.70;;;;;;;;;;5147682;27;20049;-66
2023/07/19 13:36:50;;;;;;;1.05;0.60;;;;;;;;;;5149725;27;20057;-66
2023/07/19 13:39:19;;;;;;;0.85;0.80;;;;;;;;;;5141370;27;20085;-65
2023/07/19 13:41:46;;;;;;;2.05;1.10;;;;;;;;;;5143731;27;20047;-65
2023/07/19 13:44:13;;;;;;;0.90;0.90;;;;;;;;;;5139477;27;20053;-65
2023/07/19 13:46:41;;;;;;;0.82;0.65;;;;;;;;;;5124438;27;20050;-65
2023/07/19 13:49:09;;;;;;;0.98;0.60;;;;;;;;;;5139063;27;20042;-65
2023/07/19 13:51:36;;;;;;;0.77;0.70;;;;;;;;;;5151180;27;20103;-65
2023/07/19 13:54:05;;;;;;;1.38;0.70;;;;;;;;;;5123236;27;20048;-65
2023/07/19 13:56:34;;;;;;;1.10;0.85;;;;;;;;;;5143165;27;20053;-64
2023/07/19 13:59:01;;;;;;;1.33;0.70;;;;;;;;;;5144049;27;20061;-65
2023/07/19 14:01:28;;;;;;;0.88;0.70;;;;;;;;;;5144508;27;20051;-65
2023/07/19 14:03:55;;;;;;;0.73;0.60;;;;;;;;;;5143723;27;20080;-65
2023/07/19 14:06:23;;;;;;;0.82;0.70;;;;;;;;;;5141899;27;20525;-66
2023/07/19 14:08:50;;;;;;;1.02;0.60;;;;;;;;;;5134626;27;20049;-65
2023/07/19 14:11:17;;;;;;;1.50;0.60;;;;;;;;;;5142482;27;20489;-66
2023/07/19 14:13:48;;;;;;;1.60;0.90;;;;;;;;;;5139223;27;20051;-65
2023/07/19 14:16:16;;;;;;;0.60;0.60;;;;;;;;;;5143063;27;20038;-65
2023/07/19 14:18:43;;;;;;;1.60;0.60;;;;;;;;;;5143499;27;20054;-66
2023/07/19 14:21:11;;;;;;;0.90;0.70;;;;;;;;;;5143161;27;20074;-65
2023/07/19 14:23:38;;;;;;;1.02;0.60;;;;;;;;;;5143303;27;20047;-65
2023/07/19 14:26:05;;;;;;;0.98;0.80;;;;;;;;;;5145873;27;20043;-65
2023/07/19 14:28:32;;;;;;;0.60;0.60;;;;;;;;;;5138920;27;20580;-66
2023/07/19 14:31:01;;;;;;;1.00;0.65;;;;;;;;;;5144718;27;20122;-65
2023/07/19 14:33:29;;;;;;;1.70;0.60;;;;;;;;;;5138885;27;20046;-66
2023/07/19 14:35:56;;;;;;;0.70;0.50;;;;;;;;;;5126642;27;20058;-65
2023/07/19 14:38:27;;;;;;;1.08;0.70;;;;;;;;;;5146839;27;20117;-65
2023/07/19 14:40:54;;;;;;;2.40;0.82;;;;;;;;;;5146125;27;20866;-66
2023/07/19 14:43:22;;;;;;;2.45;0.75;;;;;;;;;;5146655;27;20057;-65
2023/07/19 14:45:49;;;;;;;1.10;0.60;;;;;;;;;;5143859;27;20165;-67